sensor_id;sensor_type;location;lat;lon;timestamp;pressure;altitude;pressure_sealevel;temperature;humidity
52777;BME280;38656;54.260;20.822;2023-03-30T00:00:59;100754.88;;;13.52;41.93
52777;BME280;38656;54.260;20.822;2023-03-30T00:03:26;100745.91;;;14.72;41.27
52777;BME280;38656;54.260;20.822;2023-03-30T00:05:54;100744.84;;;13.24;43.77
52777;BME280;38656;54.260;20.822;2023-03-30T00:08:24;100748.72;;;14.41;41.68
52777;BME280;38656;54.260;20.822;2023-03-30T00:11:03;100749.81;;;14.09;41.94
52777;BME280;38656;54.260;20.822;2023-03-30T00:13:31;100745.34;;;13.99;42.11
52777;BME280;38656;54.260;20.822;2023-03-30T00:15:58;100742.00;;;14.76;41.50
52777;BME280;38656;54.260;20.822;2023-03-30T00:18:24;100743.28;;;13.43;41.86
52777;BME280;38656;54.260;20.822;2023-03-30T00:20:52;100740.41;;;13.25;42.67
52777;BME280;38656;54.260;20.822;2023-03-30T00:23:19;100727.84;;;13.27;44.01
52777;BME280;38656;54.260;20.822;2023-03-30T00:25:45;100725.75;;;15.44;40.84
52777;BME280;38656;54.260;20.822;2023-03-30T00:28:12;100726.69;;;12.26;44.59
52777;BME280;38656;54.260;20.822;2023-03-30T00:30:38;100725.72;;;15.54;40.68
52777;BME280;38656;54.260;20.822;2023-03-30T00:33:04;100720.31;;;14.31;41.47
52777;BME280;38656;54.260;20.822;2023-03-30T00:35:30;100713.16;;;13.63;43.64
52777;BME280;38656;54.260;20.822;2023-03-30T00:37:57;100710.13;;;13.78;43.17
52777;BME280;38656;54.260;20.822;2023-03-30T00:40:27;100715.63;;;13.36;43.38
52777;BME280;38656;54.260;20.822;2023-03-30T00:42:59;100708.16;;;14.68;41.79
52777;BME280;38656;54.260;20.822;2023-03-30T00:45:30;100707.06;;;15.36;40.91
52777;BME280;38656;54.260;20.822;2023-03-30T00:48:07;100704.72;;;13.39;43.71
52777;BME280;38656;54.260;20.822;2023-03-30T00:50:38;100703.41;;;14.32;42.11
52777;BME280;38656;54.260;20.822;2023-03-30T00:53:15;100699.75;;;14.63;41.90
52777;BME280;38656;54.260;20.822;2023-03-30T00:55:45;100699.13;;;13.01;43.72
52777;BME280;38656;54.260;20.822;2023-03-30T00:58:13;100700.09;;;13.91;43.33
52777;BME280;38656;54.260;20.822;2023-03-30T01:00:41;100684.91;;;15.35;40.82
52777;BME280;38656;54.260;20.822;2023-03-30T01:05:46;100689.28;;;13.13;43.53
52777;BME280;38656;54.260;20.822;2023-03-30T01:08:14;100683.28;;;14.40;41.89
52777;BME280;38656;54.260;20.822;2023-03-30T01:10:43;100687.94;;;13.98;43.53
52777;BME280;38656;54.260;20.822;2023-03-30T01:13:10;100679.53;;;15.91;40.31
52777;BME280;38656;54.260;20.822;2023-03-30T01:15:42;100683.75;;;16.90;38.23
52777;BME280;38656;54.260;20.822;2023-03-30T01:18:16;100679.94;;;16.40;39.66
52777;BME280;38656;54.260;20.822;2023-03-30T01:21:00;100683.41;;;15.97;39.54
52777;BME280;38656;54.260;20.822;2023-03-30T01:26:23;100680.06;;;15.49;40.69
52777;BME280;38656;54.260;20.822;2023-03-30T01:29:18;100673.97;;;16.99;38.61
52777;BME280;38656;54.260;20.822;2023-03-30T01:40:28;100668.06;;;13.83;43.94
52777;BME280;38656;54.260;20.822;2023-03-30T01:43:16;100670.69;;;13.63;44.01
52777;BME280;38656;54.260;20.822;2023-03-30T01:45:49;100664.53;;;12.72;45.73
52777;BME280;38656;54.260;20.822;2023-03-30T01:48:25;100655.66;;;15.08;43.02
52777;BME280;38656;54.260;20.822;2023-03-30T01:51:01;100666.50;;;13.41;44.65
52777;BME280;38656;54.260;20.822;2023-03-30T01:53:38;100660.88;;;14.99;41.68
52777;BME280;38656;54.260;20.822;2023-03-30T01:56:14;100652.56;;;13.69;44.56
52777;BME280;38656;54.260;20.822;2023-03-30T01:59:10;100664.53;;;13.03;45.67
52777;BME280;38656;54.260;20.822;2023-03-30T02:01:39;100650.88;;;14.07;43.53
52777;BME280;38656;54.260;20.822;2023-03-30T02:04:09;100653.94;;;14.12;44.04
52777;BME280;38656;54.260;20.822;2023-03-30T02:06:48;100651.56;;;14.09;44.88
52777;BME280;38656;54.260;20.822;2023-03-30T02:09:19;100658.31;;;13.23;46.22
52777;BME280;38656;54.260;20.822;2023-03-30T02:11:49;100649.44;;;15.17;41.73
52777;BME280;38656;54.260;20.822;2023-03-30T02:14:21;100645.56;;;13.97;43.69
52777;BME280;38656;54.260;20.822;2023-03-30T02:17:04;100647.94;;;13.90;44.68
52777;BME280;38656;54.260;20.822;2023-03-30T02:19:33;100638.28;;;14.09;43.50
52777;BME280;38656;54.260;20.822;2023-03-30T02:22:00;100634.41;;;13.93;44.09
52777;BME280;38656;54.260;20.822;2023-03-30T02:24:28;100646.47;;;15.48;42.58
52777;BME280;38656;54.260;20.822;2023-03-30T02:26:58;100650.63;;;12.28;47.35
52777;BME280;38656;54.260;20.822;2023-03-30T02:29:25;100644.81;;;12.96;46.64
52777;BME280;38656;54.260;20.822;2023-03-30T02:31:55;100648.00;;;13.20;46.35
52777;BME280;38656;54.260;20.822;2023-03-30T02:34:32;100645.47;;;14.65;44.86
52777;BME280;38656;54.260;20.822;2023-03-30T02:45:51;100642.09;;;12.45;47.99
52777;BME280;38656;54.260;20.822;2023-03-30T02:48:39;100640.53;;;13.14;46.74
52777;BME280;38656;54.260;20.822;2023-03-30T02:54:28;100630.34;;;13.79;46.24
52777;BME280;38656;54.260;20.822;2023-03-30T02:59:59;100629.75;;;13.56;46.60
52777;BME280;38656;54.260;20.822;2023-03-30T03:02:47;100627.97;;;13.57;47.63
52777;BME280;38656;54.260;20.822;2023-03-30T03:05:17;100619.56;;;13.42;48.24
52777;BME280;38656;54.260;20.822;2023-03-30T03:07:44;100620.97;;;13.46;46.79
52777;BME280;38656;54.260;20.822;2023-03-30T03:10:10;100625.94;;;13.30;47.13
52777;BME280;38656;54.260;20.822;2023-03-30T03:12:37;100626.66;;;15.32;44.38
52777;BME280;38656;54.260;20.822;2023-03-30T03:15:03;100633.16;;;12.46;47.84
52777;BME280;38656;54.260;20.822;2023-03-30T03:17:30;100617.50;;;13.55;46.66
52777;BME280;38656;54.260;20.822;2023-03-30T03:20:06;100618.03;;;14.08;47.62
52777;BME280;38656;54.260;20.822;2023-03-30T03:22:35;100619.56;;;13.42;48.44
52777;BME280;38656;54.260;20.822;2023-03-30T03:25:02;100630.75;;;13.05;48.62
52777;BME280;38656;54.260;20.822;2023-03-30T03:27:29;100616.69;;;13.14;48.18
52777;BME280;38656;54.260;20.822;2023-03-30T03:29:55;100615.63;;;13.26;49.15
52777;BME280;38656;54.260;20.822;2023-03-30T03:32:22;100614.16;;;13.83;47.74
52777;BME280;38656;54.260;20.822;2023-03-30T03:34:49;100614.97;;;13.34;48.72
52777;BME280;38656;54.260;20.822;2023-03-30T03:37:15;100609.16;;;14.84;46.00
52777;BME280;38656;54.260;20.822;2023-03-30T03:39:41;100609.53;;;13.85;47.91
52777;BME280;38656;54.260;20.822;2023-03-30T03:42:07;100604.22;;;13.75;48.33
52777;BME280;38656;54.260;20.822;2023-03-30T03:44:33;100598.91;;;13.65;48.47
52777;BME280;38656;54.260;20.822;2023-03-30T03:47:00;100602.75;;;14.39;47.33
52777;BME280;38656;54.260;20.822;2023-03-30T03:49:26;100597.84;;;14.34;47.44
52777;BME280;38656;54.260;20.822;2023-03-30T03:51:52;100596.03;;;14.25;47.54
52777;BME280;38656;54.260;20.822;2023-03-30T03:54:18;100598.31;;;14.10;48.12
52777;BME280;38656;54.260;20.822;2023-03-30T03:56:44;100585.72;;;14.22;45.88
52777;BME280;38656;54.260;20.822;2023-03-30T03:59:10;100592.38;;;13.79;47.58
52777;BME280;38656;54.260;20.822;2023-03-30T04:01:37;100585.78;;;13.63;48.34
52777;BME280;38656;54.260;20.822;2023-03-30T04:04:03;100588.06;;;15.28;45.94
52777;BME280;38656;54.260;20.822;2023-03-30T04:06:29;100584.41;;;13.59;47.73
52777;BME280;38656;54.260;20.822;2023-03-30T04:08:55;100590.31;;;14.77;46.52
52777;BME280;38656;54.260;20.822;2023-03-30T04:11:21;100584.59;;;15.00;46.71
52777;BME280;38656;54.260;20.822;2023-03-30T04:13:48;100583.41;;;14.47;46.34
52777;BME280;38656;54.260;20.822;2023-03-30T04:16:14;100586.00;;;15.22;45.65
52777;BME280;38656;54.260;20.822;2023-03-30T04:18:41;100584.94;;;13.53;48.83
52777;BME280;38656;54.260;20.822;2023-03-30T04:21:08;100587.97;;;13.19;49.97
52777;BME280;38656;54.260;20.822;2023-03-30T04:23:38;100582.50;;;12.70;50.95
52777;BME280;38656;54.260;20.822;2023-03-30T04:26:06;100584.63;;;13.17;49.97
52777;BME280;38656;54.260;20.822;2023-03-30T04:28:34;100582.16;;;13.55;49.70
52777;BME280;38656;54.260;20.822;2023-03-30T04:31:05;100582.13;;;13.94;48.98
52777;BME280;38656;54.260;20.822;2023-03-30T04:33:35;100589.63;;;12.70;51.83
52777;BME280;38656;54.260;20.822;2023-03-30T04:36:03;100580.38;;;13.05;49.98
52777;BME280;38656;54.260;20.822;2023-03-30T04:38:30;100572.31;;;14.61;48.59
52777;BME280;38656;54.260;20.822;2023-03-30T04:40:58;100572.44;;;12.64;52.38
52777;BME280;38656;54.260;20.822;2023-03-30T04:43:25;100581.25;;;13.15;51.66
52777;BME280;38656;54.260;20.822;2023-03-30T04:45:52;100570.53;;;14.52;49.61
52777;BME280;38656;54.260;20.822;2023-03-30T04:48:20;100567.94;;;13.46;52.35
52777;BME280;38656;54.260;20.822;2023-03-30T04:50:48;100573.38;;;12.53;54.43
52777;BME280;38656;54.260;20.822;2023-03-30T04:53:15;100574.56;;;13.31;52.01
52777;BME280;38656;54.260;20.822;2023-03-30T04:55:46;100567.03;;;14.04;50.52
52777;BME280;38656;54.260;20.822;2023-03-30T04:58:12;100564.72;;;13.72;51.54
52777;BME280;38656;54.260;20.822;2023-03-30T05:00:39;100569.13;;;12.62;54.10
52777;BME280;38656;54.260;20.822;2023-03-30T05:03:06;100562.69;;;14.50;51.16
52777;BME280;38656;54.260;20.822;2023-03-30T05:05:32;100554.94;;;14.29;50.32
52777;BME280;38656;54.260;20.822;2023-03-30T05:07:59;100553.97;;;13.54;52.43
52777;BME280;38656;54.260;20.822;2023-03-30T05:10:25;100554.72;;;14.13;51.02
52777;BME280;38656;54.260;20.822;2023-03-30T05:12:55;100562.53;;;14.24;51.08
52777;BME280;38656;54.260;20.822;2023-03-30T05:15:21;100551.31;;;14.21;51.61
52777;BME280;38656;54.260;20.822;2023-03-30T05:17:47;100559.53;;;13.41;52.33
52777;BME280;38656;54.260;20.822;2023-03-30T05:20:14;100554.97;;;12.83;53.98
52777;BME280;38656;54.260;20.822;2023-03-30T05:22:40;100556.63;;;14.30;52.31
52777;BME280;38656;54.260;20.822;2023-03-30T05:25:07;100559.75;;;13.08;53.80
52777;BME280;38656;54.260;20.822;2023-03-30T05:27:34;100553.22;;;13.22;53.57
52777;BME280;38656;54.260;20.822;2023-03-30T05:30:00;100563.44;;;13.37;53.68
52777;BME280;38656;54.260;20.822;2023-03-30T05:32:27;100555.25;;;12.89;56.38
52777;BME280;38656;54.260;20.822;2023-03-30T05:34:53;100550.22;;;12.86;55.28
52777;BME280;38656;54.260;20.822;2023-03-30T05:37:19;100545.81;;;13.26;56.35
52777;BME280;38656;54.260;20.822;2023-03-30T05:39:45;100548.56;;;14.03;53.80
52777;BME280;38656;54.260;20.822;2023-03-30T05:42:13;100551.03;;;14.33;53.47
52777;BME280;38656;54.260;20.822;2023-03-30T05:44:39;100547.94;;;14.76;50.74
52777;BME280;38656;54.260;20.822;2023-03-30T05:47:05;100545.00;;;13.65;55.56
52777;BME280;38656;54.260;20.822;2023-03-30T05:49:31;100556.97;;;14.08;51.93
52777;BME280;38656;54.260;20.822;2023-03-30T05:51:58;100560.19;;;13.23;56.31
52777;BME280;38656;54.260;20.822;2023-03-30T05:54:24;100551.41;;;13.13;55.36
52777;BME280;38656;54.260;20.822;2023-03-30T05:56:51;100551.38;;;14.11;53.28
52777;BME280;38656;54.260;20.822;2023-03-30T05:59:17;100541.78;;;14.93;51.92
52777;BME280;38656;54.260;20.822;2023-03-30T06:01:44;100548.09;;;13.40;53.88
52777;BME280;38656;54.260;20.822;2023-03-30T06:04:11;100542.69;;;14.46;53.34
52777;BME280;38656;54.260;20.822;2023-03-30T06:06:37;100552.78;;;12.98;56.94
52777;BME280;38656;54.260;20.822;2023-03-30T06:09:03;100548.88;;;13.12;56.84
52777;BME280;38656;54.260;20.822;2023-03-30T06:11:30;100545.47;;;14.17;54.51
52777;BME280;38656;54.260;20.822;2023-03-30T06:13:57;100553.47;;;15.28;51.39
52777;BME280;38656;54.260;20.822;2023-03-30T06:16:23;100540.81;;;13.72;53.94
52777;BME280;38656;54.260;20.822;2023-03-30T06:18:50;100539.63;;;14.04;53.46
52777;BME280;38656;54.260;20.822;2023-03-30T06:21:17;100548.56;;;13.05;56.36
52777;BME280;38656;54.260;20.822;2023-03-30T06:23:43;100540.28;;;14.63;54.14
52777;BME280;38656;54.260;20.822;2023-03-30T06:26:09;100539.94;;;13.03;57.67
52777;BME280;38656;54.260;20.822;2023-03-30T06:28:36;100548.03;;;13.11;58.98
52777;BME280;38656;54.260;20.822;2023-03-30T06:31:07;100536.88;;;13.76;56.23
52777;BME280;38656;54.260;20.822;2023-03-30T06:33:34;100543.34;;;13.44;57.42
52777;BME280;38656;54.260;20.822;2023-03-30T06:36:00;100540.44;;;14.89;55.29
52777;BME280;38656;54.260;20.822;2023-03-30T06:38:27;100537.41;;;13.99;54.41
52777;BME280;38656;54.260;20.822;2023-03-30T06:40:53;100543.78;;;14.16;55.11
52777;BME280;38656;54.260;20.822;2023-03-30T06:43:21;100536.94;;;14.51;55.00
52777;BME280;38656;54.260;20.822;2023-03-30T06:45:55;100542.03;;;14.34;53.58
52777;BME280;38656;54.260;20.822;2023-03-30T06:48:23;100542.53;;;14.58;54.99
52777;BME280;38656;54.260;20.822;2023-03-30T06:50:50;100537.53;;;14.45;55.07
52777;BME280;38656;54.260;20.822;2023-03-30T06:53:17;100539.66;;;14.79;54.87
52777;BME280;38656;54.260;20.822;2023-03-30T06:55:43;100539.50;;;14.43;55.24
52777;BME280;38656;54.260;20.822;2023-03-30T06:58:10;100537.81;;;14.14;56.84
52777;BME280;38656;54.260;20.822;2023-03-30T07:00:36;100538.94;;;15.04;53.53
52777;BME280;38656;54.260;20.822;2023-03-30T07:03:03;100535.81;;;15.63;52.37
52777;BME280;38656;54.260;20.822;2023-03-30T07:05:29;100537.94;;;14.50;55.00
52777;BME280;38656;54.260;20.822;2023-03-30T07:07:55;100534.38;;;15.15;53.85
52777;BME280;38656;54.260;20.822;2023-03-30T07:10:23;100538.28;;;14.75;54.49
52777;BME280;38656;54.260;20.822;2023-03-30T07:12:49;100524.50;;;14.89;56.27
52777;BME280;38656;54.260;20.822;2023-03-30T07:15:15;100538.34;;;14.55;57.05
52777;BME280;38656;54.260;20.822;2023-03-30T07:17:42;100529.75;;;15.97;52.94
52777;BME280;38656;54.260;20.822;2023-03-30T07:20:11;100528.22;;;14.41;55.66
52777;BME280;38656;54.260;20.822;2023-03-30T07:22:41;100528.31;;;15.40;53.79
52777;BME280;38656;54.260;20.822;2023-03-30T07:25:08;100522.50;;;14.91;55.74
52777;BME280;38656;54.260;20.822;2023-03-30T07:27:36;100524.84;;;15.66;52.07
52777;BME280;38656;54.260;20.822;2023-03-30T07:30:04;100527.16;;;14.89;56.00
52777;BME280;38656;54.260;20.822;2023-03-30T07:32:31;100526.63;;;16.28;52.30
52777;BME280;38656;54.260;20.822;2023-03-30T07:34:57;100531.16;;;15.65;53.33
52777;BME280;38656;54.260;20.822;2023-03-30T07:37:23;100523.03;;;15.13;55.39
52777;BME280;38656;54.260;20.822;2023-03-30T07:39:50;100529.69;;;14.06;56.43
52777;BME280;38656;54.260;20.822;2023-03-30T07:42:16;100531.88;;;15.67;55.69
52777;BME280;38656;54.260;20.822;2023-03-30T07:44:42;100523.34;;;15.10;55.71
52777;BME280;38656;54.260;20.822;2023-03-30T07:47:08;100523.78;;;16.72;52.54
52777;BME280;38656;54.260;20.822;2023-03-30T07:49:34;100529.34;;;15.84;54.93
52777;BME280;38656;54.260;20.822;2023-03-30T07:52:01;100525.69;;;15.49;56.17
52777;BME280;38656;54.260;20.822;2023-03-30T07:54:27;100524.53;;;15.25;56.44
52777;BME280;38656;54.260;20.822;2023-03-30T07:56:53;100532.06;;;14.84;57.32
52777;BME280;38656;54.260;20.822;2023-03-30T07:59:20;100521.91;;;15.33;55.45
52777;BME280;38656;54.260;20.822;2023-03-30T08:01:47;100517.34;;;15.44;54.36
52777;BME280;38656;54.260;20.822;2023-03-30T08:04:15;100513.19;;;16.12;53.80
52777;BME280;38656;54.260;20.822;2023-03-30T08:06:44;100499.56;;;17.82;51.60
52777;BME280;38656;54.260;20.822;2023-03-30T08:09:10;100511.41;;;15.94;53.52
52777;BME280;38656;54.260;20.822;2023-03-30T08:11:37;100500.91;;;17.21;51.39
52777;BME280;38656;54.260;20.822;2023-03-30T08:14:04;100508.75;;;15.50;55.10
52777;BME280;38656;54.260;20.822;2023-03-30T08:16:31;100499.25;;;17.20;50.93
52777;BME280;38656;54.260;20.822;2023-03-30T08:18:57;100499.56;;;17.08;51.79
52777;BME280;38656;54.260;20.822;2023-03-30T08:21:24;100498.91;;;17.06;51.49
52777;BME280;38656;54.260;20.822;2023-03-30T08:23:51;100502.97;;;16.33;52.13
52777;BME280;38656;54.260;20.822;2023-03-30T08:26:18;100489.91;;;17.90;50.18
52777;BME280;38656;54.260;20.822;2023-03-30T08:28:44;100496.88;;;17.99;48.97
52777;BME280;38656;54.260;20.822;2023-03-30T08:31:10;100492.59;;;17.24;50.36
52777;BME280;38656;54.260;20.822;2023-03-30T08:33:36;100495.59;;;16.19;53.24
52777;BME280;38656;54.260;20.822;2023-03-30T08:36:03;100499.31;;;16.26;53.55
52777;BME280;38656;54.260;20.822;2023-03-30T08:38:30;100487.38;;;16.46;53.62
52777;BME280;38656;54.260;20.822;2023-03-30T08:40:56;100487.00;;;18.16;50.27
52777;BME280;38656;54.260;20.822;2023-03-30T08:46:06;100489.28;;;18.67;50.50
52777;BME280;38656;54.260;20.822;2023-03-30T08:48:36;100487.19;;;18.06;50.46
52777;BME280;38656;54.260;20.822;2023-03-30T08:51:27;100485.13;;;18.96;48.72
52777;BME280;38656;54.260;20.822;2023-03-30T08:54:05;100477.19;;;19.10;48.70
52777;BME280;38656;54.260;20.822;2023-03-30T08:59:34;100482.91;;;17.56;50.39
52777;BME280;38656;54.260;20.822;2023-03-30T09:02:22;100478.88;;;18.72;49.55
52777;BME280;38656;54.260;20.822;2023-03-30T09:05:14;100473.50;;;19.64;47.47
52777;BME280;38656;54.260;20.822;2023-03-30T09:08:02;100476.59;;;19.38;46.97
52777;BME280;38656;54.260;20.822;2023-03-30T09:10:36;100477.53;;;17.89;50.15
52777;BME280;38656;54.260;20.822;2023-03-30T09:13:05;100474.91;;;19.60;47.60
52777;BME280;38656;54.260;20.822;2023-03-30T09:15:40;100469.97;;;18.80;49.36
52777;BME280;38656;54.260;20.822;2023-03-30T09:18:20;100464.50;;;18.73;47.78
52777;BME280;38656;54.260;20.822;2023-03-30T09:20:49;100466.84;;;17.89;50.17
52777;BME280;38656;54.260;20.822;2023-03-30T09:23:17;100463.47;;;17.86;50.91
52777;BME280;38656;54.260;20.822;2023-03-30T09:32:13;100453.47;;;18.76;47.18
52777;BME280;38656;54.260;20.822;2023-03-30T09:37:16;100443.31;;;17.92;49.87
52777;BME280;38656;54.260;20.822;2023-03-30T09:39:44;100436.53;;;19.45;46.71
52777;BME280;38656;54.260;20.822;2023-03-30T09:45:21;100438.56;;;18.50;48.34
52777;BME280;38656;54.260;20.822;2023-03-30T09:47:47;100429.38;;;19.22;48.15
52777;BME280;38656;54.260;20.822;2023-03-30T09:50:23;100427.94;;;20.03;46.12
52777;BME280;38656;54.260;20.822;2023-03-30T09:53:00;100422.38;;;19.89;46.41
52777;BME280;38656;54.260;20.822;2023-03-30T09:57:54;100411.22;;;20.95;43.34
52777;BME280;38656;54.260;20.822;2023-03-30T10:00:34;100414.78;;;20.08;45.16
52777;BME280;38656;54.260;20.822;2023-03-30T10:03:05;100415.94;;;19.31;45.93
52777;BME280;38656;54.260;20.822;2023-03-30T10:05:34;100408.34;;;19.87;45.83
52777;BME280;38656;54.260;20.822;2023-03-30T10:08:03;100404.22;;;19.61;47.10
52777;BME280;38656;54.260;20.822;2023-03-30T10:10:37;100399.66;;;19.85;47.14
52777;BME280;38656;54.260;20.822;2023-03-30T10:13:15;100396.09;;;19.40;46.69
52777;BME280;38656;54.260;20.822;2023-03-30T10:15:44;100390.38;;;19.73;46.11
52777;BME280;38656;54.260;20.822;2023-03-30T10:18:22;100380.69;;;19.87;46.69
52777;BME280;38656;54.260;20.822;2023-03-30T10:21:01;100393.88;;;19.05;47.20
52777;BME280;38656;54.260;20.822;2023-03-30T10:23:57;100382.56;;;20.38;44.99
52777;BME280;38656;54.260;20.822;2023-03-30T10:26:27;100382.31;;;20.32;44.44
52777;BME280;38656;54.260;20.822;2023-03-30T10:29:00;100375.16;;;20.76;45.63
52777;BME280;38656;54.260;20.822;2023-03-30T10:31:33;100372.44;;;22.38;42.51
52777;BME280;38656;54.260;20.822;2023-03-30T10:34:02;100374.38;;;20.46;44.83
52777;BME280;38656;54.260;20.822;2023-03-30T10:36:37;100366.53;;;23.23;39.74
52777;BME280;38656;54.260;20.822;2023-03-30T10:39:11;100368.63;;;19.08;45.75
52777;BME280;38656;54.260;20.822;2023-03-30T10:41:40;100353.06;;;21.02;42.72
52777;BME280;38656;54.260;20.822;2023-03-30T10:44:27;100351.03;;;20.61;42.25
52777;BME280;38656;54.260;20.822;2023-03-30T10:58:10;100329.16;;;20.43;43.82
52777;BME280;38656;54.260;20.822;2023-03-30T11:03:14;100332.50;;;20.45;43.59
52777;BME280;38656;54.260;20.822;2023-03-30T11:05:48;100335.56;;;20.05;44.52
52777;BME280;38656;54.260;20.822;2023-03-30T11:10:55;100326.19;;;21.59;42.55
52777;BME280;38656;54.260;20.822;2023-03-30T11:13:43;100318.47;;;22.93;40.87
52777;BME280;38656;54.260;20.822;2023-03-30T11:16:38;100314.25;;;21.68;41.27
52777;BME280;38656;54.260;20.822;2023-03-30T11:24:23;100305.00;;;21.43;41.08
52777;BME280;38656;54.260;20.822;2023-03-30T11:37:09;100292.78;;;20.55;41.68
52777;BME280;38656;54.260;20.822;2023-03-30T11:39:44;100285.41;;;21.97;41.55
52777;BME280;38656;54.260;20.822;2023-03-30T11:42:25;100269.22;;;24.35;39.15
52777;BME280;38656;54.260;20.822;2023-03-30T11:44:53;100258.50;;;25.59;36.80
52777;BME280;38656;54.260;20.822;2023-03-30T11:56:06;100269.78;;;22.34;41.83
52777;BME280;38656;54.260;20.822;2023-03-30T12:02:27;100258.78;;;21.54;42.09
52777;BME280;38656;54.260;20.822;2023-03-30T12:04:46;100261.06;;;22.79;40.59
52777;BME280;38656;54.260;20.822;2023-03-30T12:10:30;100262.72;;;21.23;42.91
52777;BME280;38656;54.260;20.822;2023-03-30T12:13:01;100248.19;;;22.07;42.00
52777;BME280;38656;54.260;20.822;2023-03-30T12:15:36;100263.53;;;21.17;43.88
52777;BME280;38656;54.260;20.822;2023-03-30T12:18:36;100248.44;;;22.93;40.07
52777;BME280;38656;54.260;20.822;2023-03-30T12:26:27;100255.09;;;20.42;42.02
52777;BME280;38656;54.260;20.822;2023-03-30T12:28:56;100254.38;;;20.55;44.32
52777;BME280;38656;54.260;20.822;2023-03-30T12:34:22;100225.88;;;23.98;39.54
52777;BME280;38656;54.260;20.822;2023-03-30T12:37:06;100241.06;;;20.90;43.79
52777;BME280;38656;54.260;20.822;2023-03-30T12:39:44;100227.50;;;21.04;42.90
52777;BME280;38656;54.260;20.822;2023-03-30T12:51:05;100207.81;;;21.32;43.00
52777;BME280;38656;54.260;20.822;2023-03-30T12:53:58;100205.28;;;21.24;42.76
52777;BME280;38656;54.260;20.822;2023-03-30T13:04:48;100182.75;;;20.77;44.07
52777;BME280;38656;54.260;20.822;2023-03-30T13:07:23;100175.63;;;21.46;43.33
52777;BME280;38656;54.260;20.822;2023-03-30T13:10:03;100172.09;;;20.97;45.00
52777;BME280;38656;54.260;20.822;2023-03-30T13:12:49;100174.66;;;20.70;45.10
52777;BME280;38656;54.260;20.822;2023-03-30T13:17:58;100179.44;;;20.53;44.92
52777;BME280;38656;54.260;20.822;2023-03-30T13:20:58;100178.88;;;20.08;44.85
52777;BME280;38656;54.260;20.822;2023-03-30T13:25:59;100170.28;;;20.97;43.64
52777;BME280;38656;54.260;20.822;2023-03-30T13:36:58;100190.25;;;21.98;44.95
52777;BME280;38656;54.260;20.822;2023-03-30T13:40:02;100177.97;;;19.79;47.91
52777;BME280;38656;54.260;20.822;2023-03-30T13:43:11;100178.44;;;20.54;47.32
52777;BME280;38656;54.260;20.822;2023-03-30T13:46:03;100178.22;;;19.84;47.32
52777;BME280;38656;54.260;20.822;2023-03-30T13:51:22;100166.38;;;20.43;48.61
52777;BME280;38656;54.260;20.822;2023-03-30T13:54:01;100174.94;;;20.54;47.46
52777;BME280;38656;54.260;20.822;2023-03-30T13:56:34;100158.31;;;20.15;49.98
52777;BME280;38656;54.260;20.822;2023-03-30T13:59:05;100169.66;;;19.89;49.31
52777;BME280;38656;54.260;20.822;2023-03-30T14:01:32;100153.25;;;19.62;50.61
52777;BME280;38656;54.260;20.822;2023-03-30T14:03:59;100148.06;;;20.82;49.27
52777;BME280;38656;54.260;20.822;2023-03-30T14:06:30;100145.31;;;20.12;49.67
52777;BME280;38656;54.260;20.822;2023-03-30T14:09:21;100148.38;;;20.09;50.43
52777;BME280;38656;54.260;20.822;2023-03-30T14:11:53;100137.03;;;19.85;51.86
52777;BME280;38656;54.260;20.822;2023-03-30T14:16:58;100130.69;;;19.71;51.71
52777;BME280;38656;54.260;20.822;2023-03-30T14:19:28;100131.13;;;20.18;50.11
52777;BME280;38656;54.260;20.822;2023-03-30T14:22:19;100126.41;;;21.38;49.19
52777;BME280;38656;54.260;20.822;2023-03-30T14:25:03;100116.53;;;19.77;50.49
52777;BME280;38656;54.260;20.822;2023-03-30T14:27:36;100105.66;;;22.21;46.82
52777;BME280;38656;54.260;20.822;2023-03-30T14:30:19;100106.06;;;23.03;45.15
52777;BME280;38656;54.260;20.822;2023-03-30T14:32:45;100105.94;;;20.76;50.14
52777;BME280;38656;54.260;20.822;2023-03-30T14:35:15;100109.75;;;19.60;51.07
52777;BME280;38656;54.260;20.822;2023-03-30T14:37:43;100105.13;;;19.90;51.77
52777;BME280;38656;54.260;20.822;2023-03-30T14:40:19;100092.19;;;21.67;47.95
52777;BME280;38656;54.260;20.822;2023-03-30T14:42:48;100087.97;;;21.31;48.42
52777;BME280;38656;54.260;20.822;2023-03-30T14:45:16;100080.16;;;23.15;45.27
52777;BME280;38656;54.260;20.822;2023-03-30T14:47:46;100087.44;;;20.94;49.33
52777;BME280;38656;54.260;20.822;2023-03-30T14:50:15;100081.47;;;20.01;53.07
52777;BME280;38656;54.260;20.822;2023-03-30T14:52:44;100072.69;;;20.42;51.48
52777;BME280;38656;54.260;20.822;2023-03-30T14:55:15;100071.03;;;19.41;53.91
52777;BME280;38656;54.260;20.822;2023-03-30T14:57:43;100070.69;;;22.21;48.33
52777;BME280;38656;54.260;20.822;2023-03-30T15:00:18;100068.75;;;20.73;52.81
52777;BME280;38656;54.260;20.822;2023-03-30T15:02:52;100066.03;;;21.21;50.94
52777;BME280;38656;54.260;20.822;2023-03-30T15:05:23;100064.06;;;20.46;53.36
52777;BME280;38656;54.260;20.822;2023-03-30T15:07:50;100072.78;;;19.92;55.68
52777;BME280;38656;54.260;20.822;2023-03-30T15:11:11;100067.88;;;18.49;58.75
52777;BME280;38656;54.260;20.822;2023-03-30T15:13:37;100064.94;;;19.90;57.85
52777;BME280;38656;54.260;20.822;2023-03-30T15:16:05;100062.53;;;19.16;61.27
52777;BME280;38656;54.260;20.822;2023-03-30T15:18:33;100059.28;;;19.20;59.23
52777;BME280;38656;54.260;20.822;2023-03-30T15:21:01;100055.00;;;20.89;59.16